sensor_id;sensor_type;location;lat;lon;timestamp;temperature;humidity
3850;DHT22;1940;51.052;13.678;2023-05-07T00:01:06;10.10;95.20
3850;DHT22;1940;51.052;13.678;2023-05-07T00:03:32;10.10;95.20
3850;DHT22;1940;51.052;13.678;2023-05-07T00:05:57;10.10;95.20
3850;DHT22;1940;51.052;13.678;2023-05-07T00:08:23;10.20;95.20
3850;DHT22;1940;51.052;13.678;2023-05-07T00:10:49;10.30;95.20
3850;DHT22;1940;51.052;13.678;2023-05-07T00:13:15;10.20;95.20
3850;DHT22;1940;51.052;13.678;2023-05-07T00:15:40;10.10;95.20
3850;DHT22;1940;51.052;13.678;2023-05-07T00:18:06;10.10;95.20
3850;DHT22;1940;51.052;13.678;2023-05-07T00:20:31;10.10;95.20
3850;DHT22;1940;51.052;13.678;2023-05-07T00:22:57;10.10;95.20
3850;DHT22;1940;51.052;13.678;2023-05-07T00:25:22;10.10;95.20
3850;DHT22;1940;51.052;13.678;2023-05-07T00:27:48;10.00;95.20
3850;DHT22;1940;51.052;13.678;2023-05-07T00:30:13;10.00;95.20
3850;DHT22;1940;51.052;13.678;2023-05-07T00:32:39;10.00;95.20
3850;DHT22;1940;51.052;13.678;2023-05-07T00:35:06;9.90;95.20
3850;DHT22;1940;51.052;13.678;2023-05-07T00:37:31;10.00;95.20
3850;DHT22;1940;51.052;13.678;2023-05-07T00:39:57;10.00;95.20
3850;DHT22;1940;51.052;13.678;2023-05-07T00:42:22;10.00;95.20
3850;DHT22;1940;51.052;13.678;2023-05-07T00:44:49;9.90;95.20
3850;DHT22;1940;51.052;13.678;2023-05-07T00:47:15;9.80;95.20
3850;DHT22;1940;51.052;13.678;2023-05-07T00:49:44;9.90;95.20
3850;DHT22;1940;51.052;13.678;2023-05-07T00:52:13;10.00;95.20
3850;DHT22;1940;51.052;13.678;2023-05-07T00:54:41;10.00;95.20
3850;DHT22;1940;51.052;13.678;2023-05-07T00:57:06;10.10;95.20
3850;DHT22;1940;51.052;13.678;2023-05-07T00:59:32;10.00;95.20
3850;DHT22;1940;51.052;13.678;2023-05-07T01:01:59;10.10;95.20
3850;DHT22;1940;51.052;13.678;2023-05-07T01:04:25;10.10;94.70
3850;DHT22;1940;51.052;13.678;2023-05-07T01:06:52;10.10;94.90
3850;DHT22;1940;51.052;13.678;2023-05-07T01:09:19;10.10;94.90
3850;DHT22;1940;51.052;13.678;2023-05-07T01:11:46;10.20;95.00
3850;DHT22;1940;51.052;13.678;2023-05-07T01:14:12;10.20;93.80
3850;DHT22;1940;51.052;13.678;2023-05-07T01:16:38;10.20;93.60
3850;DHT22;1940;51.052;13.678;2023-05-07T01:19:03;10.20;93.90
3850;DHT22;1940;51.052;13.678;2023-05-07T01:21:32;10.20;93.60
3850;DHT22;1940;51.052;13.678;2023-05-07T01:23:58;10.20;93.40
3850;DHT22;1940;51.052;13.678;2023-05-07T01:26:24;10.20;93.30
3850;DHT22;1940;51.052;13.678;2023-05-07T01:28:49;10.20;92.80
3850;DHT22;1940;51.052;13.678;2023-05-07T01:31:16;10.10;93.10
3850;DHT22;1940;51.052;13.678;2023-05-07T01:33:44;10.20;93.10
3850;DHT22;1940;51.052;13.678;2023-05-07T01:36:11;10.20;93.00
3850;DHT22;1940;51.052;13.678;2023-05-07T01:38:39;10.20;92.90
3850;DHT22;1940;51.052;13.678;2023-05-07T01:41:06;10.20;92.90
3850;DHT22;1940;51.052;13.678;2023-05-07T01:43:31;10.20;93.00
3850;DHT22;1940;51.052;13.678;2023-05-07T01:45:57;10.20;93.00
3850;DHT22;1940;51.052;13.678;2023-05-07T01:48:24;10.20;92.80
3850;DHT22;1940;51.052;13.678;2023-05-07T01:50:51;10.20;92.70
3850;DHT22;1940;51.052;13.678;2023-05-07T01:53:16;10.30;92.70
3850;DHT22;1940;51.052;13.678;2023-05-07T01:55:42;10.30;92.70
3850;DHT22;1940;51.052;13.678;2023-05-07T01:58:07;10.30;92.30
3850;DHT22;1940;51.052;13.678;2023-05-07T02:00:34;10.40;92.40
3850;DHT22;1940;51.052;13.678;2023-05-07T02:02:59;10.30;92.70
3850;DHT22;1940;51.052;13.678;2023-05-07T02:05:25;10.30;92.50
3850;DHT22;1940;51.052;13.678;2023-05-07T02:07:50;10.30;92.50
3850;DHT22;1940;51.052;13.678;2023-05-07T02:10:16;10.30;92.60
3850;DHT22;1940;51.052;13.678;2023-05-07T02:12:41;10.30;92.80
3850;DHT22;1940;51.052;13.678;2023-05-07T02:15:09;10.40;92.10
3850;DHT22;1940;51.052;13.678;2023-05-07T02:17:39;10.40;91.40
3850;DHT22;1940;51.052;13.678;2023-05-07T02:20:05;10.40;91.30
3850;DHT22;1940;51.052;13.678;2023-05-07T02:22:32;10.40;91.50
3850;DHT22;1940;51.052;13.678;2023-05-07T02:24:57;10.30;91.90
3850;DHT22;1940;51.052;13.678;2023-05-07T02:27:23;10.20;91.90
3850;DHT22;1940;51.052;13.678;2023-05-07T02:29:48;10.20;91.80
3850;DHT22;1940;51.052;13.678;2023-05-07T02:32:14;10.10;91.80
3850;DHT22;1940;51.052;13.678;2023-05-07T02:34:39;10.20;91.90
3850;DHT22;1940;51.052;13.678;2023-05-07T02:37:05;10.10;91.80
3850;DHT22;1940;51.052;13.678;2023-05-07T02:39:30;10.20;91.60
3850;DHT22;1940;51.052;13.678;2023-05-07T02:41:56;10.20;91.30
3850;DHT22;1940;51.052;13.678;2023-05-07T02:44:21;10.20;91.50
3850;DHT22;1940;51.052;13.678;2023-05-07T02:46:47;10.20;91.50
3850;DHT22;1940;51.052;13.678;2023-05-07T02:49:12;10.20;91.70
3850;DHT22;1940;51.052;13.678;2023-05-07T02:51:37;10.10;91.70
3850;DHT22;1940;51.052;13.678;2023-05-07T02:54:03;10.00;92.00
3850;DHT22;1940;51.052;13.678;2023-05-07T02:56:29;10.00;92.20
3850;DHT22;1940;51.052;13.678;2023-05-07T02:58:54;10.00;92.30
3850;DHT22;1940;51.052;13.678;2023-05-07T03:01:20;9.90;92.40
3850;DHT22;1940;51.052;13.678;2023-05-07T03:03:46;9.90;92.60
3850;DHT22;1940;51.052;13.678;2023-05-07T03:06:11;9.90;92.60
3850;DHT22;1940;51.052;13.678;2023-05-07T03:08:37;9.90;92.30
3850;DHT22;1940;51.052;13.678;2023-05-07T03:11:02;9.90;92.30
3850;DHT22;1940;51.052;13.678;2023-05-07T03:13:28;9.80;92.40
3850;DHT22;1940;51.052;13.678;2023-05-07T03:15:53;9.70;92.50
3850;DHT22;1940;51.052;13.678;2023-05-07T03:18:19;9.70;92.90
3850;DHT22;1940;51.052;13.678;2023-05-07T03:20:45;9.70;93.20
3850;DHT22;1940;51.052;13.678;2023-05-07T03:23:11;9.70;93.10
3850;DHT22;1940;51.052;13.678;2023-05-07T03:25:36;9.70;93.20
3850;DHT22;1940;51.052;13.678;2023-05-07T03:28:02;9.80;93.00
3850;DHT22;1940;51.052;13.678;2023-05-07T03:30:27;9.80;92.80
3850;DHT22;1940;51.052;13.678;2023-05-07T03:32:53;9.80;92.60
3850;DHT22;1940;51.052;13.678;2023-05-07T03:35:18;9.80;92.80
3850;DHT22;1940;51.052;13.678;2023-05-07T03:37:44;9.80;92.80
3850;DHT22;1940;51.052;13.678;2023-05-07T03:40:10;9.60;93.00
3850;DHT22;1940;51.052;13.678;2023-05-07T03:42:37;9.60;93.40
3850;DHT22;1940;51.052;13.678;2023-05-07T03:45:03;9.60;93.10
3850;DHT22;1940;51.052;13.678;2023-05-07T03:47:28;9.50;93.50
3850;DHT22;1940;51.052;13.678;2023-05-07T03:49:54;9.60;93.90
3850;DHT22;1940;51.052;13.678;2023-05-07T03:52:20;9.60;93.20
3850;DHT22;1940;51.052;13.678;2023-05-07T03:54:49;9.50;93.50
3850;DHT22;1940;51.052;13.678;2023-05-07T03:57:14;9.50;93.40
3850;DHT22;1940;51.052;13.678;2023-05-07T03:59:40;9.50;93.30
3850;DHT22;1940;51.052;13.678;2023-05-07T04:02:06;9.50;93.30
3850;DHT22;1940;51.052;13.678;2023-05-07T04:04:31;9.60;93.30
3850;DHT22;1940;51.052;13.678;2023-05-07T04:06:58;9.50;93.20
3850;DHT22;1940;51.052;13.678;2023-05-07T04:09:24;9.50;93.30
3850;DHT22;1940;51.052;13.678;2023-05-07T04:11:50;9.50;93.40
3850;DHT22;1940;51.052;13.678;2023-05-07T04:14:15;9.50;93.60
3850;DHT22;1940;51.052;13.678;2023-05-07T04:16:41;9.60;93.40
3850;DHT22;1940;51.052;13.678;2023-05-07T04:19:07;9.70;93.20
3850;DHT22;1940;51.052;13.678;2023-05-07T04:21:32;9.70;93.00
3850;DHT22;1940;51.052;13.678;2023-05-07T04:23:58;9.70;92.90
3850;DHT22;1940;51.052;13.678;2023-05-07T04:26:23;9.70;92.80
3850;DHT22;1940;51.052;13.678;2023-05-07T04:28:49;9.80;92.80
3850;DHT22;1940;51.052;13.678;2023-05-07T04:31:15;9.80;92.60
3850;DHT22;1940;51.052;13.678;2023-05-07T04:33:41;9.80;92.60
3850;DHT22;1940;51.052;13.678;2023-05-07T04:36:07;9.90;92.20
3850;DHT22;1940;51.052;13.678;2023-05-07T04:38:33;9.90;92.60
3850;DHT22;1940;51.052;13.678;2023-05-07T04:41:03;9.80;92.30
3850;DHT22;1940;51.052;13.678;2023-05-07T04:43:29;9.90;91.90
3850;DHT22;1940;51.052;13.678;2023-05-07T04:45:54;9.80;92.00
3850;DHT22;1940;51.052;13.678;2023-05-07T04:48:20;9.80;91.90
3850;DHT22;1940;51.052;13.678;2023-05-07T04:50:52;9.70;91.90
3850;DHT22;1940;51.052;13.678;2023-05-07T04:53:17;9.60;91.70
3850;DHT22;1940;51.052;13.678;2023-05-07T04:55:43;9.60;92.30
3850;DHT22;1940;51.052;13.678;2023-05-07T04:58:10;9.60;92.50
3850;DHT22;1940;51.052;13.678;2023-05-07T05:00:35;9.50;92.90
3850;DHT22;1940;51.052;13.678;2023-05-07T05:03:01;9.60;93.00
3850;DHT22;1940;51.052;13.678;2023-05-07T05:05:26;9.70;92.60
3850;DHT22;1940;51.052;13.678;2023-05-07T05:07:52;9.60;92.30
3850;DHT22;1940;51.052;13.678;2023-05-07T05:10:18;9.60;92.20
3850;DHT22;1940;51.052;13.678;2023-05-07T05:12:43;9.70;91.90
3850;DHT22;1940;51.052;13.678;2023-05-07T05:15:11;9.60;92.00
3850;DHT22;1940;51.052;13.678;2023-05-07T05:17:37;9.60;91.90
3850;DHT22;1940;51.052;13.678;2023-05-07T05:20:03;9.60;91.90
3850;DHT22;1940;51.052;13.678;2023-05-07T05:22:29;9.60;92.00
3850;DHT22;1940;51.052;13.678;2023-05-07T05:24:56;9.60;91.50
3850;DHT22;1940;51.052;13.678;2023-05-07T05:27:21;9.80;91.40
3850;DHT22;1940;51.052;13.678;2023-05-07T05:29:47;9.80;91.20
3850;DHT22;1940;51.052;13.678;2023-05-07T05:32:12;10.00;91.10
3850;DHT22;1940;51.052;13.678;2023-05-07T05:34:38;10.10;90.60
3850;DHT22;1940;51.052;13.678;2023-05-07T05:37:03;10.00;89.90
3850;DHT22;1940;51.052;13.678;2023-05-07T05:39:29;9.90;90.60
3850;DHT22;1940;51.052;13.678;2023-05-07T05:41:54;9.90;90.70
3850;DHT22;1940;51.052;13.678;2023-05-07T05:44:20;10.00;90.70
3850;DHT22;1940;51.052;13.678;2023-05-07T05:46:45;10.00;90.40
3850;DHT22;1940;51.052;13.678;2023-05-07T05:49:11;10.10;90.10
3850;DHT22;1940;51.052;13.678;2023-05-07T05:51:36;10.10;89.90
3850;DHT22;1940;51.052;13.678;2023-05-07T05:54:02;10.10;90.00
3850;DHT22;1940;51.052;13.678;2023-05-07T05:56:27;10.10;89.20
3850;DHT22;1940;51.052;13.678;2023-05-07T05:58:53;9.90;89.20
3850;DHT22;1940;51.052;13.678;2023-05-07T06:01:18;9.90;89.40
3850;DHT22;1940;51.052;13.678;2023-05-07T06:03:44;9.90;89.70
3850;DHT22;1940;51.052;13.678;2023-05-07T06:06:10;9.90;89.60
3850;DHT22;1940;51.052;13.678;2023-05-07T06:08:35;9.90;90.00
3850;DHT22;1940;51.052;13.678;2023-05-07T06:11:01;9.90;89.30
3850;DHT22;1940;51.052;13.678;2023-05-07T06:13:27;9.70;89.50
3850;DHT22;1940;51.052;13.678;2023-05-07T06:15:52;9.70;89.80
3850;DHT22;1940;51.052;13.678;2023-05-07T06:18:18;9.70;89.70
3850;DHT22;1940;51.052;13.678;2023-05-07T06:20:43;9.70;89.60
3850;DHT22;1940;51.052;13.678;2023-05-07T06:23:09;9.70;89.40
3850;DHT22;1940;51.052;13.678;2023-05-07T06:25:34;9.80;89.80
3850;DHT22;1940;51.052;13.678;2023-05-07T06:28:00;9.80;89.40
3850;DHT22;1940;51.052;13.678;2023-05-07T06:30:25;9.80;89.30
3850;DHT22;1940;51.052;13.678;2023-05-07T06:32:52;9.90;89.10
3850;DHT22;1940;51.052;13.678;2023-05-07T06:35:17;9.90;88.80
3850;DHT22;1940;51.052;13.678;2023-05-07T06:37:43;9.90;88.60
3850;DHT22;1940;51.052;13.678;2023-05-07T06:40:09;9.80;88.90
3850;DHT22;1940;51.052;13.678;2023-05-07T06:42:36;9.80;89.00
3850;DHT22;1940;51.052;13.678;2023-05-07T06:45:01;9.80;88.90
3850;DHT22;1940;51.052;13.678;2023-05-07T06:47:27;9.80;89.40
3850;DHT22;1940;51.052;13.678;2023-05-07T06:49:53;9.90;89.20
3850;DHT22;1940;51.052;13.678;2023-05-07T06:52:18;10.00;88.70
3850;DHT22;1940;51.052;13.678;2023-05-07T06:54:44;10.00;88.70
3850;DHT22;1940;51.052;13.678;2023-05-07T06:57:09;10.00;88.70
3850;DHT22;1940;51.052;13.678;2023-05-07T06:59:35;10.10;88.00
3850;DHT22;1940;51.052;13.678;2023-05-07T07:02:01;10.20;88.20
3850;DHT22;1940;51.052;13.678;2023-05-07T07:04:26;10.20;88.00
3850;DHT22;1940;51.052;13.678;2023-05-07T07:06:53;10.10;87.60
3850;DHT22;1940;51.052;13.678;2023-05-07T07:09:18;10.10;87.90
3850;DHT22;1940;51.052;13.678;2023-05-07T07:11:44;10.10;88.30
3850;DHT22;1940;51.052;13.678;2023-05-07T07:14:09;10.30;87.90
3850;DHT22;1940;51.052;13.678;2023-05-07T07:16:35;10.40;87.00
3850;DHT22;1940;51.052;13.678;2023-05-07T07:19:00;10.50;86.60
3850;DHT22;1940;51.052;13.678;2023-05-07T07:21:26;10.30;87.20
3850;DHT22;1940;51.052;13.678;2023-05-07T07:23:51;10.20;88.10
3850;DHT22;1940;51.052;13.678;2023-05-07T07:26:17;10.00;89.00
3850;DHT22;1940;51.052;13.678;2023-05-07T07:28:44;10.00;88.90
3850;DHT22;1940;51.052;13.678;2023-05-07T07:31:10;9.90;88.70
3850;DHT22;1940;51.052;13.678;2023-05-07T07:33:35;9.80;89.10
3850;DHT22;1940;51.052;13.678;2023-05-07T07:36:01;9.90;88.50
3850;DHT22;1940;51.052;13.678;2023-05-07T07:38:26;9.90;87.60
3850;DHT22;1940;51.052;13.678;2023-05-07T07:40:52;10.00;87.60
3850;DHT22;1940;51.052;13.678;2023-05-07T07:43:17;10.00;87.10
3850;DHT22;1940;51.052;13.678;2023-05-07T07:45:43;10.10;86.60
3850;DHT22;1940;51.052;13.678;2023-05-07T07:48:09;10.20;85.70
3850;DHT22;1940;51.052;13.678;2023-05-07T07:50:34;10.30;85.40
3850;DHT22;1940;51.052;13.678;2023-05-07T07:53:00;10.30;85.30
3850;DHT22;1940;51.052;13.678;2023-05-07T07:55:25;10.30;84.50
3850;DHT22;1940;51.052;13.678;2023-05-07T07:57:52;10.40;84.50
3850;DHT22;1940;51.052;13.678;2023-05-07T08:00:18;10.40;84.50
3850;DHT22;1940;51.052;13.678;2023-05-07T08:02:43;10.40;84.60
3850;DHT22;1940;51.052;13.678;2023-05-07T08:05:09;10.40;84.70
3850;DHT22;1940;51.052;13.678;2023-05-07T08:07:34;10.40;84.80
3850;DHT22;1940;51.052;13.678;2023-05-07T08:10:00;10.30;84.60
3850;DHT22;1940;51.052;13.678;2023-05-07T08:12:26;10.30;84.90
3850;DHT22;1940;51.052;13.678;2023-05-07T08:14:51;10.30;85.10
3850;DHT22;1940;51.052;13.678;2023-05-07T08:17:17;10.30;85.00
3850;DHT22;1940;51.052;13.678;2023-05-07T08:19:42;10.30;85.10
3850;DHT22;1940;51.052;13.678;2023-05-07T08:22:09;10.20;85.30
3850;DHT22;1940;51.052;13.678;2023-05-07T08:24:34;10.20;86.00
3850;DHT22;1940;51.052;13.678;2023-05-07T08:27:00;10.20;85.70
3850;DHT22;1940;51.052;13.678;2023-05-07T08:29:25;10.40;85.40
3850;DHT22;1940;51.052;13.678;2023-05-07T08:31:51;10.40;84.80
3850;DHT22;1940;51.052;13.678;2023-05-07T08:34:16;10.50;84.40
3850;DHT22;1940;51.052;13.678;2023-05-07T08:36:42;10.60;84.10
3850;DHT22;1940;51.052;13.678;2023-05-07T08:39:07;10.80;84.00
3850;DHT22;1940;51.052;13.678;2023-05-07T08:41:34;11.00;83.40
3850;DHT22;1940;51.052;13.678;2023-05-07T08:44:02;11.10;82.90
3850;DHT22;1940;51.052;13.678;2023-05-07T08:46:30;11.20;82.20
3850;DHT22;1940;51.052;13.678;2023-05-07T08:48:56;11.20;82.00
3850;DHT22;1940;51.052;13.678;2023-05-07T08:51:22;11.30;81.90
3850;DHT22;1940;51.052;13.678;2023-05-07T08:53:48;11.20;82.20
3850;DHT22;1940;51.052;13.678;2023-05-07T08:56:16;11.20;82.40
3850;DHT22;1940;51.052;13.678;2023-05-07T08:58:45;11.30;81.80
3850;DHT22;1940;51.052;13.678;2023-05-07T09:01:14;11.30;81.40
3850;DHT22;1940;51.052;13.678;2023-05-07T09:03:40;11.30;81.20
3850;DHT22;1940;51.052;13.678;2023-05-07T09:06:06;11.30;81.40
3850;DHT22;1940;51.052;13.678;2023-05-07T09:08:33;11.50;81.20
3850;DHT22;1940;51.052;13.678;2023-05-07T09:10:59;11.60;80.80
3850;DHT22;1940;51.052;13.678;2023-05-07T09:13:25;11.60;80.40
3850;DHT22;1940;51.052;13.678;2023-05-07T09:15:50;11.50;81.00
3850;DHT22;1940;51.052;13.678;2023-05-07T09:18:16;11.40;81.50
3850;DHT22;1940;51.052;13.678;2023-05-07T09:20:41;11.20;82.10
3850;DHT22;1940;51.052;13.678;2023-05-07T09:23:08;11.00;82.90
3850;DHT22;1940;51.052;13.678;2023-05-07T09:25:35;11.10;83.10
3850;DHT22;1940;51.052;13.678;2023-05-07T09:28:02;11.30;82.80
3850;DHT22;1940;51.052;13.678;2023-05-07T09:30:29;11.50;82.20
3850;DHT22;1940;51.052;13.678;2023-05-07T09:32:55;11.70;81.70
3850;DHT22;1940;51.052;13.678;2023-05-07T09:35:21;11.80;80.50
3850;DHT22;1940;51.052;13.678;2023-05-07T09:37:50;11.70;80.40
3850;DHT22;1940;51.052;13.678;2023-05-07T09:40:26;11.60;80.60
3850;DHT22;1940;51.052;13.678;2023-05-07T09:42:53;11.40;81.50
3850;DHT22;1940;51.052;13.678;2023-05-07T09:45:22;11.40;81.80
3850;DHT22;1940;51.052;13.678;2023-05-07T09:47:54;11.50;81.10
3850;DHT22;1940;51.052;13.678;2023-05-07T09:50:24;11.50;80.60
3850;DHT22;1940;51.052;13.678;2023-05-07T09:52:52;11.40;81.00
3850;DHT22;1940;51.052;13.678;2023-05-07T09:55:17;11.40;81.00
3850;DHT22;1940;51.052;13.678;2023-05-07T09:57:44;11.20;81.10
3850;DHT22;1940;51.052;13.678;2023-05-07T10:00:11;11.20;81.20
3850;DHT22;1940;51.052;13.678;2023-05-07T10:02:37;11.10;80.90
3850;DHT22;1940;51.052;13.678;2023-05-07T10:05:12;11.20;81.00
3850;DHT22;1940;51.052;13.678;2023-05-07T10:07:38;11.60;80.40
3850;DHT22;1940;51.052;13.678;2023-05-07T10:10:04;11.90;79.10
3850;DHT22;1940;51.052;13.678;2023-05-07T10:12:30;12.10;78.60
3850;DHT22;1940;51.052;13.678;2023-05-07T10:15:03;12.40;77.50
3850;DHT22;1940;51.052;13.678;2023-05-07T10:17:30;12.30;77.80
3850;DHT22;1940;51.052;13.678;2023-05-07T10:19:55;12.00;78.70
3850;DHT22;1940;51.052;13.678;2023-05-07T10:22:22;11.90;79.20
3850;DHT22;1940;51.052;13.678;2023-05-07T10:24:49;11.80;79.40
3850;DHT22;1940;51.052;13.678;2023-05-07T10:27:17;11.60;80.20
3850;DHT22;1940;51.052;13.678;2023-05-07T10:30:14;11.80;79.60
3850;DHT22;1940;51.052;13.678;2023-05-07T10:32:45;12.20;79.10
3850;DHT22;1940;51.052;13.678;2023-05-07T10:35:17;12.50;77.50
3850;DHT22;1940;51.052;13.678;2023-05-07T10:37:44;12.70;77.10
3850;DHT22;1940;51.052;13.678;2023-05-07T10:40:11;12.80;76.40
3850;DHT22;1940;51.052;13.678;2023-05-07T10:42:37;12.70;76.00
3850;DHT22;1940;51.052;13.678;2023-05-07T10:45:15;12.70;76.40
3850;DHT22;1940;51.052;13.678;2023-05-07T10:48:20;12.50;76.60
3850;DHT22;1940;51.052;13.678;2023-05-07T10:50:46;12.40;77.50
3850;DHT22;1940;51.052;13.678;2023-05-07T10:55:47;12.20;77.50
3850;DHT22;1940;51.052;13.678;2023-05-07T10:58:27;12.10;78.10
3850;DHT22;1940;51.052;13.678;2023-05-07T11:01:00;12.20;77.60
3850;DHT22;1940;51.052;13.678;2023-05-07T11:03:27;12.30;77.40
3850;DHT22;1940;51.052;13.678;2023-05-07T11:06:12;12.30;76.90
3850;DHT22;1940;51.052;13.678;2023-05-07T11:08:55;12.60;76.30
3850;DHT22;1940;51.052;13.678;2023-05-07T11:11:49;12.70;75.50
3850;DHT22;1940;51.052;13.678;2023-05-07T11:17:07;12.80;75.40
3850;DHT22;1940;51.052;13.678;2023-05-07T11:19:49;12.90;74.80
3850;DHT22;1940;51.052;13.678;2023-05-07T11:24:56;13.10;74.70
3850;DHT22;1940;51.052;13.678;2023-05-07T11:27:26;13.10;74.40
3850;DHT22;1940;51.052;13.678;2023-05-07T11:29:51;13.10;74.30
3850;DHT22;1940;51.052;13.678;2023-05-07T11:32:31;13.00;74.20
3850;DHT22;1940;51.052;13.678;2023-05-07T11:35:00;12.80;74.80
3850;DHT22;1940;51.052;13.678;2023-05-07T11:37:27;12.80;75.00
3850;DHT22;1940;51.052;13.678;2023-05-07T11:40:05;12.70;75.40
3850;DHT22;1940;51.052;13.678;2023-05-07T11:42:36;12.70;75.30
3850;DHT22;1940;51.052;13.678;2023-05-07T11:45:06;12.80;75.50
3850;DHT22;1940;51.052;13.678;2023-05-07T11:47:33;12.90;75.10
3850;DHT22;1940;51.052;13.678;2023-05-07T11:50:04;13.00;75.00
3850;DHT22;1940;51.052;13.678;2023-05-07T11:52:30;13.20;74.60
3850;DHT22;1940;51.052;13.678;2023-05-07T11:54:57;13.20;74.70
3850;DHT22;1940;51.052;13.678;2023-05-07T11:57:26;13.30;74.50
3850;DHT22;1940;51.052;13.678;2023-05-07T11:59:59;13.40;73.90
3850;DHT22;1940;51.052;13.678;2023-05-07T12:02:28;13.40;73.80
3850;DHT22;1940;51.052;13.678;2023-05-07T12:04:54;13.40;74.60
3850;DHT22;1940;51.052;13.678;2023-05-07T12:07:20;13.60;74.50
3850;DHT22;1940;51.052;13.678;2023-05-07T12:09:47;13.70;73.80
3850;DHT22;1940;51.052;13.678;2023-05-07T12:12:13;13.60;73.60
3850;DHT22;1940;51.052;13.678;2023-05-07T12:14:42;13.50;74.00
3850;DHT22;1940;51.052;13.678;2023-05-07T12:17:09;13.60;74.00
3850;DHT22;1940;51.052;13.678;2023-05-07T12:19:36;13.70;73.70
3850;DHT22;1940;51.052;13.678;2023-05-07T12:22:05;13.80;73.80
3850;DHT22;1940;51.052;13.678;2023-05-07T12:24:44;14.00;72.90
3850;DHT22;1940;51.052;13.678;2023-05-07T12:27:10;13.80;74.10
3850;DHT22;1940;51.052;13.678;2023-05-07T12:29:35;13.80;73.70
3850;DHT22;1940;51.052;13.678;2023-05-07T12:32:04;13.60;74.60
3850;DHT22;1940;51.052;13.678;2023-05-07T12:34:31;13.40;74.30
3850;DHT22;1940;51.052;13.678;2023-05-07T12:36:57;13.30;75.00
3850;DHT22;1940;51.052;13.678;2023-05-07T12:39:22;13.50;75.20
3850;DHT22;1940;51.052;13.678;2023-05-07T12:41:55;13.70;74.90
3850;DHT22;1940;51.052;13.678;2023-05-07T12:44:25;13.80;73.60
3850;DHT22;1940;51.052;13.678;2023-05-07T12:46:53;13.80;73.80
3850;DHT22;1940;51.052;13.678;2023-05-07T12:49:19;13.80;74.30
3850;DHT22;1940;51.052;13.678;2023-05-07T12:51:47;13.90;73.40
3850;DHT22;1940;51.052;13.678;2023-05-07T12:54:13;13.70;73.60
3850;DHT22;1940;51.052;13.678;2023-05-07T12:56:40;13.50;74.70
3850;DHT22;1940;51.052;13.678;2023-05-07T12:59:05;13.50;74.80
3850;DHT22;1940;51.052;13.678;2023-05-07T13:01:31;13.70;74.60
3850;DHT22;1940;51.052;13.678;2023-05-07T13:04:03;13.80;73.70
3850;DHT22;1940;51.052;13.678;2023-05-07T13:06:30;13.90;73.60
3850;DHT22;1940;51.052;13.678;2023-05-07T13:08:56;14.10;73.00
3850;DHT22;1940;51.052;13.678;2023-05-07T13:11:22;14.20;72.60
3850;DHT22;1940;51.052;13.678;2023-05-07T13:13:48;14.30;72.40
3850;DHT22;1940;51.052;13.678;2023-05-07T13:16:13;14.30;72.70
3850;DHT22;1940;51.052;13.678;2023-05-07T13:18:40;14.40;72.10
3850;DHT22;1940;51.052;13.678;2023-05-07T13:21:06;14.30;72.70
3850;DHT22;1940;51.052;13.678;2023-05-07T13:23:32;14.40;72.60
3850;DHT22;1940;51.052;13.678;2023-05-07T13:25:57;14.40;72.30
3850;DHT22;1940;51.052;13.678;2023-05-07T13:28:24;14.20;72.40
3850;DHT22;1940;51.052;13.678;2023-05-07T13:30:50;14.20;72.70
3850;DHT22;1940;51.052;13.678;2023-05-07T13:33:17;14.10;72.50
3850;DHT22;1940;51.052;13.678;2023-05-07T13:35:43;14.10;72.80
3850;DHT22;1940;51.052;13.678;2023-05-07T13:38:08;14.10;72.90
3850;DHT22;1940;51.052;13.678;2023-05-07T13:40:34;14.10;72.50
3850;DHT22;1940;51.052;13.678;2023-05-07T13:43:00;14.10;73.00
3850;DHT22;1940;51.052;13.678;2023-05-07T13:45:28;14.10;72.30
3850;DHT22;1940;51.052;13.678;2023-05-07T13:47:55;14.00;72.60
3850;DHT22;1940;51.052;13.678;2023-05-07T13:50:21;14.00;72.60
3850;DHT22;1940;51.052;13.678;2023-05-07T13:52:46;14.10;72.80
3850;DHT22;1940;51.052;13.678;2023-05-07T13:55:23;14.20;72.40
3850;DHT22;1940;51.052;13.678;2023-05-07T13:57:57;14.20;72.30
3850;DHT22;1940;51.052;13.678;2023-05-07T14:00:25;14.10;71.80
3850;DHT22;1940;51.052;13.678;2023-05-07T14:02:50;14.00;72.50
3850;DHT22;1940;51.052;13.678;2023-05-07T14:05:16;14.00;72.20
3850;DHT22;1940;51.052;13.678;2023-05-07T14:07:41;13.90;72.50
3850;DHT22;1940;51.052;13.678;2023-05-07T14:10:07;14.10;72.20
3850;DHT22;1940;51.052;13.678;2023-05-07T14:12:33;14.10;72.30
3850;DHT22;1940;51.052;13.678;2023-05-07T14:14:58;14.20;72.30
3850;DHT22;1940;51.052;13.678;2023-05-07T14:17:24;14.30;71.70
3850;DHT22;1940;51.052;13.678;2023-05-07T14:19:53;14.10;71.50
3850;DHT22;1940;51.052;13.678;2023-05-07T14:22:20;14.10;72.20
3850;DHT22;1940;51.052;13.678;2023-05-07T14:24:47;14.10;72.20
3850;DHT22;1940;51.052;13.678;2023-05-07T14:27:12;14.20;71.80
3850;DHT22;1940;51.052;13.678;2023-05-07T14:29:38;14.20;71.90
3850;DHT22;1940;51.052;13.678;2023-05-07T14:32:03;14.10;72.10
3850;DHT22;1940;51.052;13.678;2023-05-07T14:34:29;14.00;71.90
3850;DHT22;1940;51.052;13.678;2023-05-07T14:36:55;14.00;72.10
3850;DHT22;1940;51.052;13.678;2023-05-07T14:39:21;14.00;72.40
3850;DHT22;1940;51.052;13.678;2023-05-07T14:41:47;14.10;72.70
3850;DHT22;1940;51.052;13.678;2023-05-07T14:44:13;14.30;72.10
3850;DHT22;1940;51.052;13.678;2023-05-07T14:46:38;14.50;71.50
3850;DHT22;1940;51.052;13.678;2023-05-07T14:49:04;14.60;71.20
3850;DHT22;1940;51.052;13.678;2023-05-07T14:51:29;14.50;70.60
3850;DHT22;1940;51.052;13.678;2023-05-07T14:53:55;14.40;71.10
3850;DHT22;1940;51.052;13.678;2023-05-07T14:56:21;14.50;71.10
3850;DHT22;1940;51.052;13.678;2023-05-07T14:58:47;14.40;70.90
3850;DHT22;1940;51.052;13.678;2023-05-07T15:01:14;14.30;71.80
3850;DHT22;1940;51.052;13.678;2023-05-07T15:03:40;14.30;71.70
3850;DHT22;1940;51.052;13.678;2023-05-07T15:06:05;14.30;71.40
3850;DHT22;1940;51.052;13.678;2023-05-07T15:08:31;14.20;72.30
3850;DHT22;1940;51.052;13.678;2023-05-07T15:10:56;14.10;71.90
3850;DHT22;1940;51.052;13.678;2023-05-07T15:13:22;13.90;72.50
3850;DHT22;1940;51.052;13.678;2023-05-07T15:15:48;13.90;72.90
3850;DHT22;1940;51.052;13.678;2023-05-07T15:18:15;13.80;73.20
3850;DHT22;1940;51.052;13.678;2023-05-07T15:20:41;13.70;73.30
3850;DHT22;1940;51.052;13.678;2023-05-07T15:23:08;13.80;73.50
3850;DHT22;1940;51.052;13.678;2023-05-07T15:25:38;13.90;73.30
3850;DHT22;1940;51.052;13.678;2023-05-07T15:28:03;13.80;72.80
3850;DHT22;1940;51.052;13.678;2023-05-07T15:30:29;13.80;73.30
3850;DHT22;1940;51.052;13.678;2023-05-07T15:32:54;13.70;73.20
3850;DHT22;1940;51.052;13.678;2023-05-07T15:35:21;13.50;73.70
3850;DHT22;1940;51.052;13.678;2023-05-07T15:37:48;13.30;74.20
3850;DHT22;1940;51.052;13.678;2023-05-07T15:40:15;13.30;74.40
3850;DHT22;1940;51.052;13.678;2023-05-07T15:42:40;13.30;74.10
3850;DHT22;1940;51.052;13.678;2023-05-07T15:45:06;13.30;74.10
3850;DHT22;1940;51.052;13.678;2023-05-07T15:47:33;13.30;73.90
3850;DHT22;1940;51.052;13.678;2023-05-07T15:50:00;13.30;73.90
3850;DHT22;1940;51.052;13.678;2023-05-07T15:52:26;13.20;74.10
3850;DHT22;1940;51.052;13.678;2023-05-07T15:54:53;13.30;74.30